createdAt,value
2019-02-07T00:01:57.274Z,79.90
2019-02-07T00:04:25.034Z,80.20
2019-02-07T00:06:54.651Z,80.00
2019-02-07T00:09:22.452Z,79.70
2019-02-07T00:11:50.283Z,79.10
2019-02-07T00:14:18.068Z,78.70
2019-02-07T00:16:45.835Z,78.20
2019-02-07T00:19:13.804Z,76.50
2019-02-07T00:21:41.555Z,76.50
2019-02-07T00:24:09.240Z,75.90
2019-02-07T00:26:38.103Z,74.80
2019-02-07T00:29:05.955Z,74.10
2019-02-07T00:31:34.770Z,73.30
2019-02-07T00:34:02.691Z,72.20
2019-02-07T00:36:30.507Z,73.30
2019-02-07T00:38:58.407Z,73.90
2019-02-07T00:41:26.161Z,74.10
2019-02-07T00:43:54.289Z,74.10
2019-02-07T00:46:22.171Z,73.90
2019-02-07T00:48:49.942Z,73.70
2019-02-07T00:51:17.756Z,73.50
2019-02-07T00:53:45.391Z,73.50
2019-02-07T00:56:13.171Z,73.90
2019-02-07T00:58:40.929Z,74.10
2019-02-07T01:01:08.727Z,74.30
2019-02-07T01:03:36.577Z,74.10
2019-02-07T01:06:04.528Z,74.50
2019-02-07T01:08:33.373Z,74.30
2019-02-07T01:11:01.144Z,74.10
2019-02-07T01:13:29.128Z,74.30
2019-02-07T01:15:56.969Z,74.30
2019-02-07T01:18:24.838Z,74.50
2019-02-07T01:20:52.655Z,74.80
2019-02-07T01:23:20.426Z,75.00
2019-02-07T01:25:48.151Z,75.20
2019-02-07T01:28:15.920Z,75.20
2019-02-07T01:30:43.820Z,75.00
2019-02-07T01:33:11.564Z,75.40
2019-02-07T01:35:39.565Z,75.60
2019-02-07T01:38:07.307Z,75.60
2019-02-07T01:40:35.099Z,75.40
2019-02-07T01:43:02.839Z,75.40
2019-02-07T01:45:30.769Z,75.40
2019-02-07T01:47:58.551Z,75.40
2019-02-07T01:50:26.421Z,75.90
2019-02-07T01:52:54.356Z,76.50
2019-02-07T01:55:22.328Z,76.30
2019-02-07T01:57:50.237Z,76.50
2019-02-07T02:00:18.594Z,76.50
2019-02-07T02:02:46.703Z,76.50
2019-02-07T02:05:15.629Z,76.50
2019-02-07T02:07:43.846Z,76.30
2019-02-07T02:10:16.261Z,76.30
2019-02-07T02:12:43.785Z,76.30
2019-02-07T02:15:11.498Z,76.50
2019-02-07T02:17:39.022Z,76.70
2019-02-07T02:20:07.086Z,77.10
2019-02-07T02:22:34.540Z,77.40
2019-02-07T02:25:02.541Z,77.30
2019-02-07T02:27:30.069Z,77.30
2019-02-07T02:29:57.500Z,77.60
2019-02-07T02:32:24.946Z,78.00
2019-02-07T02:34:52.388Z,78.70
2019-02-07T02:37:19.823Z,78.20
2019-02-07T02:39:47.182Z,78.40
2019-02-07T02:42:14.922Z,78.40
2019-02-07T02:44:42.644Z,78.40
2019-02-07T02:47:10.236Z,78.00
2019-02-07T02:49:37.741Z,77.80
2019-02-07T02:52:05.279Z,77.60
2019-02-07T02:54:39.833Z,78.00
2019-02-07T02:57:07.280Z,78.00
2019-02-07T02:59:34.686Z,78.00
2019-02-07T03:02:22.266Z,78.60
2019-02-07T03:04:58.839Z,78.70
2019-02-07T03:07:50.233Z,78.60
2019-02-07T03:10:40.482Z,78.60
2019-02-07T03:13:25.913Z,78.60
2019-02-07T03:16:12.924Z,78.40
2019-02-07T03:18:58.811Z,78.40
2019-02-07T03:21:47.465Z,77.60
2019-02-07T03:24:43.482Z,77.60
2019-02-07T03:27:36.333Z,78.00
2019-02-07T03:30:31.030Z,78.20
2019-02-07T03:33:23.931Z,79.10
2019-02-07T03:36:07.952Z,80.40
2019-02-07T03:38:53.329Z,81.00
2019-02-07T03:41:37.709Z,81.50
2019-02-07T03:44:27.701Z,81.20
2019-02-07T03:47:06.910Z,80.80
2019-02-07T03:49:47.602Z,80.00
2019-02-07T03:52:33.527Z,79.90
2019-02-07T03:55:29.430Z,79.50
2019-02-07T03:58:19.265Z,80.00
2019-02-07T04:01:14.790Z,79.70
2019-02-07T04:03:59.972Z,79.50
2019-02-07T04:06:52.957Z,79.30
2019-02-07T04:09:48.818Z,78.70
2019-02-07T04:12:35.757Z,78.70
2019-02-07T04:15:17.879Z,78.20
2019-02-07T04:18:04.795Z,78.20
2019-02-07T04:20:47.452Z,77.80
2019-02-07T04:23:31.697Z,77.40
2019-02-07T04:26:33.568Z,76.90
2019-02-07T04:29:23.726Z,76.90
2019-02-07T04:32:09.043Z,77.30
2019-02-07T04:34:53.913Z,77.40
2019-02-07T04:37:46.542Z,78.20
2019-02-07T04:40:36.510Z,78.60
2019-02-07T04:43:26.390Z,78.70
2019-02-07T04:46:28.312Z,78.70
2019-02-07T04:49:13.400Z,78.90
2019-02-07T04:51:59.023Z,79.10
2019-02-07T04:54:38.033Z,79.70
2019-02-07T04:57:21.516Z,79.50
2019-02-07T05:00:09.955Z,79.90
2019-02-07T05:02:55.607Z,75.90
2019-02-07T05:05:41.124Z,74.80
2019-02-07T05:08:21.927Z,74.30
2019-02-07T05:11:24.106Z,73.90
2019-02-07T05:14:13.998Z,73.50
2019-02-07T05:16:59.377Z,73.20
2019-02-07T05:19:47.066Z,72.40
2019-02-07T05:22:43.052Z,72.20
2019-02-07T05:25:32.796Z,73.00
2019-02-07T05:28:18.201Z,72.80
2019-02-07T05:31:04.576Z,72.80
2019-02-07T05:33:57.782Z,73.20
2019-02-07T05:36:50.742Z,72.80
2019-02-07T05:39:36.081Z,72.20
2019-02-07T05:42:22.727Z,71.80
2019-02-07T05:45:08.188Z,70.00
2019-02-07T05:47:58.087Z,68.50
2019-02-07T05:50:42.506Z,65.90
2019-02-07T05:53:35.729Z,68.30
2019-02-07T05:56:19.922Z,69.10
2019-02-07T05:59:16.896Z,69.20
2019-02-07T06:01:51.800Z,69.60
2019-02-07T06:04:39.766Z,69.20
2019-02-07T06:07:38.899Z,68.10
2019-02-07T06:10:40.226Z,69.10
2019-02-07T06:13:25.899Z,69.10
2019-02-07T06:16:18.430Z,69.20
2019-02-07T06:19:05.685Z,68.50
2019-02-07T06:21:58.935Z,68.50
2019-02-07T06:24:43.942Z,68.90
2019-02-07T06:27:29.245Z,68.70
2019-02-07T06:30:16.182Z,68.70
2019-02-07T06:33:01.352Z,69.20
2019-02-07T06:35:48.384Z,70.00
2019-02-07T06:38:38.013Z,70.40
2019-02-07T06:41:28.206Z,70.70
2019-02-07T06:44:33.397Z,70.40
2019-02-07T06:47:29.732Z,70.20
2019-02-07T06:50:15.392Z,70.40
2019-02-07T06:53:00.988Z,68.50
2019-02-07T06:55:46.057Z,63.70
2019-02-07T06:58:26.688Z,61.80
2019-02-07T07:01:06.395Z,60.70
2019-02-07T07:03:53.341Z,60.50
2019-02-07T07:06:49.448Z,60.50
2019-02-07T07:09:32.571Z,60.50
2019-02-07T07:12:17.960Z,59.90
2019-02-07T07:15:03.379Z,60.70
2019-02-07T07:17:49.047Z,61.00
2019-02-07T07:20:34.461Z,60.10
2019-02-07T07:23:20.214Z,60.10
2019-02-07T07:26:09.413Z,59.90
2019-02-07T07:28:54.427Z,59.00
2019-02-07T07:31:59.645Z,59.60
2019-02-07T07:34:46.685Z,58.60
2019-02-07T07:37:33.793Z,58.60
2019-02-07T07:40:29.762Z,59.80
2019-02-07T07:43:15.337Z,59.20
2019-02-07T07:46:08.210Z,58.90
2019-02-07T07:48:57.752Z,58.90
2019-02-07T07:52:02.460Z,58.60
2019-02-07T07:54:51.074Z,58.70
2019-02-07T07:57:47.123Z,57.40
2019-02-07T08:00:33.173Z,58.40
2019-02-07T08:03:15.030Z,57.80
2019-02-07T08:05:57.889Z,57.50
2019-02-07T08:08:53.862Z,57.40
2019-02-07T08:11:31.577Z,57.20
2019-02-07T08:14:16.885Z,57.20
2019-02-07T08:17:22.055Z,56.60
2019-02-07T08:20:13.965Z,56.00
2019-02-07T08:23:19.115Z,56.40
2019-02-07T08:26:09.224Z,56.10
2019-02-07T08:28:59.249Z,55.10
2019-02-07T08:31:40.802Z,55.50
2019-02-07T08:34:26.408Z,55.20
2019-02-07T08:37:13.459Z,54.20
2019-02-07T08:40:00.399Z,52.60
2019-02-07T08:42:46.034Z,52.90
2019-02-07T08:45:35.941Z,52.80
2019-02-07T08:48:30.001Z,52.00
2019-02-07T08:51:15.743Z,51.60
2019-02-07T08:54:01.138Z,51.00
2019-02-07T08:56:54.152Z,51.60
2019-02-07T08:59:33.039Z,51.90
2019-02-07T09:02:34.891Z,50.50
2019-02-07T09:05:26.704Z,49.70
2019-02-07T09:08:16.506Z,47.90
2019-02-07T09:11:06.414Z,46.70
2019-02-07T09:13:53.991Z,45.60
2019-02-07T09:16:50.089Z,45.00
2019-02-07T09:19:35.654Z,45.00
2019-02-07T09:22:31.828Z,45.80
2019-02-07T09:25:17.965Z,45.80
2019-02-07T09:28:03.289Z,45.30
2019-02-07T09:31:05.566Z,45.90
2019-02-07T09:33:44.919Z,45.30
2019-02-07T09:36:35.816Z,45.20
2019-02-07T09:39:32.265Z,42.90
2019-02-07T09:42:28.162Z,44.10
2019-02-07T09:45:13.606Z,42.90
2019-02-07T09:47:52.059Z,44.40
2019-02-07T09:50:37.757Z,47.50
2019-02-07T09:53:24.209Z,48.10
2019-02-07T09:56:29.333Z,48.10
2019-02-07T09:59:16.372Z,46.50
2019-02-07T10:02:22.866Z,46.20
2019-02-07T10:04:57.409Z,47.90
2019-02-07T10:07:44.373Z,46.80
2019-02-07T10:10:37.457Z,46.50
2019-02-07T10:13:22.866Z,45.90
2019-02-07T10:16:01.071Z,47.50
2019-02-07T10:19:03.225Z,47.50
2019-02-07T10:21:53.299Z,47.60
2019-02-07T10:24:43.269Z,47.90
2019-02-07T10:27:38.910Z,49.60
2019-02-07T10:30:27.916Z,50.50
2019-02-07T10:33:11.098Z,51.60
2019-02-07T10:35:54.953Z,53.20
2019-02-07T10:38:32.398Z,55.20
2019-02-07T10:41:37.272Z,56.60
2019-02-07T10:44:22.959Z,56.40
2019-02-07T10:47:08.527Z,58.00
2019-02-07T10:49:59.407Z,59.30
2019-02-07T10:52:59.561Z,59.90
2019-02-07T10:55:42.086Z,59.80
2019-02-07T10:58:37.902Z,60.50
2019-02-07T11:01:19.068Z,60.70
2019-02-07T11:04:08.742Z,58.10
2019-02-07T11:06:55.693Z,57.80
2019-02-07T11:09:50.261Z,59.80
2019-02-07T11:12:40.203Z,59.30
2019-02-07T11:15:33.658Z,61.60
2019-02-07T11:18:19.294Z,63.70
2019-02-07T11:21:13.212Z,65.00
2019-02-07T11:24:03.269Z,67.70
2019-02-07T11:26:44.574Z,70.70
2019-02-07T11:29:29.951Z,72.00
2019-02-07T11:32:16.609Z,69.60
2019-02-07T11:35:11.565Z,70.90
2019-02-07T11:37:55.901Z,70.90
2019-02-07T11:40:37.350Z,72.00
2019-02-07T11:43:28.093Z,72.20
2019-02-07T11:46:23.908Z,73.30
2019-02-07T11:49:29.323Z,73.90
2019-02-07T11:52:14.603Z,73.50
2019-02-07T11:54:53.457Z,74.30
2019-02-07T11:57:43.274Z,74.10
2019-02-07T12:00:36.976Z,74.10
2019-02-07T12:03:38.673Z,74.10
2019-02-07T12:06:38.074Z,74.10
2019-02-07T12:09:30.213Z,75.40
2019-02-07T12:12:06.096Z,75.80
2019-02-07T12:14:53.135Z,76.30
2019-02-07T12:17:58.175Z,75.90
2019-02-07T12:20:45.146Z,76.30
2019-02-07T12:23:30.372Z,76.10
2019-02-07T12:26:10.761Z,75.80
2019-02-07T12:28:56.385Z,75.60
2019-02-07T12:31:41.966Z,75.20
2019-02-07T12:34:30.657Z,74.80
2019-02-07T12:37:07.426Z,74.80
2019-02-07T12:40:02.150Z,75.80
2019-02-07T12:42:58.213Z,76.90
2019-02-07T12:45:38.542Z,77.10
2019-02-07T12:48:31.590Z,78.00
2019-02-07T12:51:07.079Z,79.10
2019-02-07T12:53:54.181Z,78.90
2019-02-07T12:56:41.105Z,79.30
2019-02-07T12:59:19.578Z,80.20
2019-02-07T13:02:06.738Z,81.20
2019-02-07T13:05:08.711Z,81.00
2019-02-07T13:07:54.667Z,79.70
2019-02-07T13:10:47.824Z,77.80
2019-02-07T13:13:41.982Z,78.90
2019-02-07T13:16:28.998Z,79.50
2019-02-07T13:19:14.814Z,79.70
2019-02-07T13:22:10.518Z,79.30
2019-02-07T13:25:00.592Z,78.70
2019-02-07T13:27:53.373Z,78.70
2019-02-07T13:30:49.193Z,78.70
2019-02-07T13:33:27.935Z,78.60
2019-02-07T13:36:26.962Z,78.00
2019-02-07T13:39:04.445Z,77.30
2019-02-07T13:41:43.355Z,76.90
2019-02-07T13:44:30.856Z,76.70
2019-02-07T13:47:15.925Z,76.50
2019-02-07T13:50:01.769Z,75.40
2019-02-07T13:52:57.336Z,75.00
2019-02-07T13:55:37.595Z,72.20
2019-02-07T13:58:17.157Z,73.50
2019-02-07T14:01:04.186Z,72.60
2019-02-07T14:03:57.233Z,73.30
2019-02-07T14:06:47.020Z,73.50
2019-02-07T14:09:40.204Z,74.50
2019-02-07T14:12:21.257Z,74.30
2019-02-07T14:15:04.978Z,74.30
2019-02-07T14:17:50.251Z,74.50
2019-02-07T14:20:50.629Z,74.30
2019-02-07T14:23:38.612Z,73.20
2019-02-07T14:26:35.168Z,73.30
2019-02-07T14:29:13.178Z,74.10
2019-02-07T14:31:54.234Z,74.80
2019-02-07T14:34:47.288Z,73.00
2019-02-07T14:37:38.418Z,72.80
2019-02-07T14:40:33.179Z,73.00
2019-02-07T14:43:22.744Z,72.00
2019-02-07T14:46:08.455Z,71.10
2019-02-07T14:48:35.902Z,70.90
2019-02-07T14:51:06.391Z,70.70
2019-02-07T14:53:33.820Z,72.00
2019-02-07T14:56:01.270Z,70.70
2019-02-07T14:58:28.712Z,71.50
2019-02-07T15:00:56.137Z,71.70
2019-02-07T15:03:26.075Z,72.00
2019-02-07T15:05:53.493Z,72.40
2019-02-07T15:08:20.946Z,73.00
2019-02-07T15:10:48.408Z,73.70
2019-02-07T15:13:15.884Z,74.80
2019-02-07T15:15:43.340Z,75.40
2019-02-07T15:18:10.745Z,75.60
2019-02-07T15:20:38.745Z,75.80
2019-02-07T15:23:06.298Z,76.50
2019-02-07T15:25:33.858Z,77.60
2019-02-07T15:28:01.463Z,78.60
2019-02-07T15:30:28.921Z,79.10
2019-02-07T15:32:56.413Z,79.50
2019-02-07T15:35:30.189Z,79.90
2019-02-07T15:37:58.954Z,79.90
2019-02-07T15:40:26.532Z,79.90
2019-02-07T15:42:54.520Z,80.40
2019-02-07T15:45:22.192Z,80.60
2019-02-07T15:47:50.566Z,81.20
2019-02-07T15:50:20.648Z,81.70
2019-02-07T15:52:48.434Z,82.10
2019-02-07T15:55:16.096Z,82.80
2019-02-07T15:57:43.645Z,83.40
2019-02-07T16:00:32.294Z,85.30
2019-02-07T16:03:03.521Z,86.60
2019-02-07T16:05:31.362Z,87.50
2019-02-07T16:07:58.837Z,87.30
2019-02-07T16:10:26.312Z,87.30
2019-02-07T16:12:54.792Z,87.10
2019-02-07T16:15:22.234Z,86.20
2019-02-07T16:17:49.805Z,86.40
2019-02-07T16:20:17.810Z,86.90
2019-02-07T16:22:45.891Z,87.10
2019-02-07T16:25:14.170Z,87.10
2019-02-07T16:27:41.694Z,86.60
2019-02-07T16:30:11.656Z,86.40
2019-02-07T16:32:39.246Z,85.80
2019-02-07T16:35:07.977Z,85.10
2019-02-07T16:37:35.589Z,85.10
2019-02-07T16:40:05.114Z,85.50
2019-02-07T16:42:32.618Z,85.30
2019-02-07T16:45:00.062Z,86.60
2019-02-07T16:47:27.538Z,88.20
2019-02-07T16:49:55.002Z,89.00
2019-02-07T16:52:22.523Z,90.20
2019-02-07T16:54:50.412Z,88.40
2019-02-07T16:57:18.078Z,88.40
2019-02-07T16:59:53.115Z,89.40
2019-02-07T17:02:20.694Z,89.70
2019-02-07T17:04:48.223Z,90.70
2019-02-07T17:07:16.038Z,91.10
2019-02-07T17:09:43.958Z,91.40
2019-02-07T17:12:12.101Z,91.90
2019-02-07T17:14:39.726Z,92.20
2019-02-07T17:17:07.377Z,91.80
2019-02-07T17:19:35.163Z,91.30
2019-02-07T17:22:02.998Z,90.70
2019-02-07T17:24:30.447Z,90.60
2019-02-07T17:26:57.871Z,90.20
2019-02-07T17:29:25.604Z,90.10
2019-02-07T17:31:53.116Z,90.10
2019-02-07T17:34:21.082Z,89.90
2019-02-07T17:36:50.376Z,90.10
2019-02-07T17:39:18.025Z,90.40
2019-02-07T17:41:45.670Z,90.60
2019-02-07T17:44:13.321Z,90.70
2019-02-07T17:46:40.959Z,90.70
2019-02-07T17:49:08.953Z,90.80
2019-02-07T17:51:36.753Z,90.80
2019-02-07T17:54:04.836Z,90.90
2019-02-07T17:56:32.627Z,90.80
2019-02-07T17:59:00.238Z,90.70
2019-02-07T18:01:27.796Z,90.90
2019-02-07T18:03:55.497Z,91.00
2019-02-07T18:06:22.963Z,90.80
2019-02-07T18:08:51.021Z,90.40
2019-02-07T18:11:18.661Z,90.10
2019-02-07T18:13:46.240Z,90.10
2019-02-07T18:16:13.694Z,90.20
2019-02-07T18:18:41.244Z,90.60
2019-02-07T18:21:09.115Z,91.20
2019-02-07T18:23:36.598Z,91.60
2019-02-07T18:26:04.241Z,91.80
2019-02-07T18:28:31.767Z,92.10
2019-02-07T18:30:59.237Z,92.40
2019-02-07T18:33:26.686Z,92.00
2019-02-07T18:35:54.282Z,91.10
2019-02-07T18:38:21.784Z,90.30
2019-02-07T18:40:49.273Z,90.10
2019-02-07T18:43:16.859Z,89.70
2019-02-07T18:45:45.488Z,89.70
2019-02-07T18:48:12.948Z,90.10
2019-02-07T18:50:40.497Z,90.10
2019-02-07T18:53:08.614Z,90.50
2019-02-07T18:55:36.119Z,90.60
2019-02-07T18:58:04.803Z,90.70
2019-02-07T19:00:33.892Z,90.70
2019-02-07T19:03:01.643Z,90.60
2019-02-07T19:05:29.338Z,90.70
2019-02-07T19:07:56.937Z,90.80
2019-02-07T19:10:24.912Z,91.10
2019-02-07T19:12:52.575Z,91.20
2019-02-07T19:15:32.744Z,90.90
2019-02-07T19:18:00.290Z,90.60
2019-02-07T19:20:28.527Z,90.40
2019-02-07T19:22:56.171Z,91.50
2019-02-07T19:25:23.810Z,92.00
2019-02-07T19:27:51.678Z,93.10
2019-02-07T19:30:25.673Z,94.00
2019-02-07T19:32:53.303Z,94.40
2019-02-07T19:35:20.902Z,95.30
2019-02-07T19:37:48.669Z,95.80
2019-02-07T19:40:16.515Z,96.30
2019-02-07T19:42:44.151Z,96.60
2019-02-07T19:45:13.766Z,96.90
2019-02-07T19:47:41.578Z,96.50
2019-02-07T19:50:11.917Z,96.50
2019-02-07T19:52:39.779Z,96.80
2019-02-07T19:55:10.331Z,96.80
2019-02-07T19:57:37.895Z,96.60
2019-02-07T20:00:08.627Z,96.20
2019-02-07T20:02:36.305Z,96.00
2019-02-07T20:05:05.357Z,95.60
2019-02-07T20:07:32.959Z,94.90
2019-02-07T20:10:00.512Z,94.20
2019-02-07T20:12:27.993Z,93.60
2019-02-07T20:17:52.090Z,91.70
2019-02-07T20:20:20.173Z,91.50
2019-02-07T20:22:48.352Z,91.60
2019-02-07T20:25:16.498Z,92.20
2019-02-07T20:27:44.422Z,92.60
2019-02-07T20:30:15.990Z,92.60
2019-02-07T20:32:43.872Z,92.90
2019-02-07T20:35:12.096Z,93.00
2019-02-07T20:37:40.270Z,92.70
2019-02-07T20:40:09.083Z,92.50
2019-02-07T20:43:07.317Z,92.60
2019-02-07T20:46:02.443Z,92.60
2019-02-07T20:49:10.866Z,92.40
2019-02-07T20:52:03.648Z,92.10
2019-02-07T20:55:09.469Z,91.80
2019-02-07T20:58:18.151Z,92.00
2019-02-07T21:01:25.495Z,92.00
2019-02-07T21:04:08.099Z,92.50
2019-02-07T21:06:48.816Z,92.80
2019-02-07T21:09:36.649Z,92.70
2019-02-07T21:12:29.559Z,92.50
2019-02-07T21:15:18.895Z,92.30
2019-02-07T21:18:02.547Z,92.30
2019-02-07T21:20:51.325Z,92.20
2019-02-07T21:23:38.888Z,92.00
2019-02-07T21:26:29.377Z,92.00
2019-02-07T21:32:44.801Z,92.40
2019-02-07T21:35:32.819Z,92.70
2019-02-07T21:38:27.639Z,93.00
2019-02-07T21:41:07.672Z,93.40
2019-02-07T21:44:05.311Z,93.40
2019-02-07T21:46:51.968Z,93.40
2019-02-07T21:49:38.601Z,93.70
2019-02-07T21:52:41.667Z,93.70
2019-02-07T21:55:21.642Z,93.60
2019-02-07T21:58:09.238Z,93.40
2019-02-07T22:00:57.625Z,93.10
2019-02-07T22:03:22.654Z,92.80
2019-02-07T22:05:50.669Z,92.70
2019-02-07T22:08:18.557Z,92.80
2019-02-07T22:10:47.159Z,92.80
2019-02-07T22:13:15.027Z,92.80
2019-02-07T22:15:42.994Z,92.90
2019-02-07T22:18:10.991Z,93.70
2019-02-07T22:20:38.884Z,93.70
2019-02-07T22:23:06.716Z,93.30
2019-02-07T22:25:34.542Z,92.80
2019-02-07T22:28:02.719Z,92.70
2019-02-07T22:30:32.118Z,92.70
2019-02-07T22:33:00.068Z,92.80
2019-02-07T22:35:27.972Z,92.80
2019-02-07T22:37:55.728Z,92.80
2019-02-07T22:40:23.650Z,93.00
2019-02-07T22:42:51.447Z,93.20
2019-02-07T22:45:19.811Z,93.50
2019-02-07T22:47:47.754Z,93.70
2019-02-07T22:50:20.648Z,93.70
2019-02-07T22:52:48.393Z,93.60
2019-02-07T22:55:16.547Z,93.40
2019-02-07T22:57:44.619Z,93.20
2019-02-07T23:01:08.787Z,93.20
2019-02-07T23:03:47.927Z,93.10
2019-02-07T23:06:16.014Z,93.70
2019-02-07T23:08:44.052Z,94.00
2019-02-07T23:11:11.903Z,94.10
2019-02-07T23:13:39.696Z,93.80
2019-02-07T23:16:08.390Z,93.70
2019-02-07T23:18:37.069Z,93.10
2019-02-07T23:21:05.428Z,92.50
2019-02-07T23:23:33.320Z,92.40
2019-02-07T23:26:01.124Z,91.80
2019-02-07T23:28:29.041Z,91.00
2019-02-07T23:30:56.855Z,90.50
2019-02-07T23:33:24.636Z,89.90
2019-02-07T23:35:52.418Z,90.10
2019-02-07T23:38:20.547Z,89.60
2019-02-07T23:40:48.325Z,89.00
2019-02-07T23:43:16.107Z,89.00
2019-02-07T23:45:43.922Z,87.70
2019-02-07T23:48:11.853Z,86.90
2019-02-07T23:50:39.665Z,86.40
2019-02-07T23:53:14.432Z,86.20
2019-02-07T23:55:38.357Z,85.80
2019-02-07T23:58:06.142Z,85.60
